AST weather

Astoria Regional Airport
Astoria, Oregon, United States

Public forecast

Using degrees Fahrenheit for public forecast. Weather courtesy of forecast.io.

Current aviation weather report (METAR) for Astoria Regional Airport

Retrieved 2019/10/14 16:55 UTC (39 minutes ago):

KAST 141655Z AUTO 00000KT 10SM OVC024 10/08 A3010 RMK AO2 SLP192 T01000083

Aviation forecast (TAF) for Astoria Regional Airport

Retrieved 2019/10/14 12:36 UTC (5 hours ago):

TAF KAST 141135Z 1412/1512 12003KT P6SM OVC028 FM141800 08003KT P6SM SCT030 FM141900 04004KT P6SM SCT250 FM142300 34006KT P6SM SCT250 FM150400 VRB03KT P6SM BKN250